Bahia De Getares — EA5074 — position and weather

sailwx.info

Track history (hours):
 
Tides and Currents Weather Stations Pressure Air Temp Water Temp Dewpoint Dewpoint Depression Visibility Wind Speed Wind Dir Waves Ship Positions

Bahia De Getares

Last reported at 2017-Sep-17 13:19 UTC. Time now 2017-Sep-26 11:16 UTC.
Position N 36°06' W 005°25'.
Warning: this ship's position is 8 days out of date.

Length 23 m.

Type: Ship. MMSI: 225985074.

Date/timePositionNaut miles runAvg speedWind from/ knotsBaromVisibWave heightAir tempDewpointWater temp
2017-Sep-17 13:19N 36°06' W 005°25'  
2017-Sep-12 09:27N 36°09' W 005°26'3 0.2
2017-Sep-11 13:36N 36°06' W 005°24'0 0.9
2017-Sep-11 13:15N 36°06' W 005°24'1 0.0
2017-Sep-10 19:40N 36°07' W 005°24'1 0.0
2017-Sep-08 17:32N 36°05' W 005°24'0 2.8
2017-Sep-08 17:30N 36°05' W 005°24'0 0.1
2017-Sep-08 16:20N 36°05' W 005°24'0 0.1
2017-Sep-08 16:01N 36°05' W 005°24'6 0.4
2017-Sep-08 00:40N 36°04' W 005°17'0 0.3
2017-Sep-08 00:30N 36°04' W 005°17'0 0.3
2017-Sep-08 00:00N 36°04' W 005°18'1 1.5
2017-Sep-07 23:30N 36°03' W 005°17'1 2.5
2017-Sep-07 22:58N 36°04' W 005°18'2 1.6
2017-Sep-07 21:47N 36°03' W 005°16'  
Track history (hours):
 
Tides and Currents Weather Stations Pressure Air Temp Water Temp Dewpoint Dewpoint Depression Visibility Wind Speed Wind Dir Waves Ship Positions

Bahia De Getares

Last reported at 2017-Sep-17 13:19 UTC. Time now 2017-Sep-26 11:16 UTC.
Position N 36°06' W 005°25'.
Warning: this ship's position is 8 days out of date.

Length 23 m.

Type: Ship. MMSI: 225985074.

Date/timePositionNaut miles runAvg speedWind from/ knotsBaromVisibWave heightAir tempDewpointWater temp
2017-Sep-17 13:19N 36°06' W 005°25'  
2017-Sep-12 09:27N 36°09' W 005°26'3 0.2
2017-Sep-11 13:36N 36°06' W 005°24'0 0.9
2017-Sep-11 13:15N 36°06' W 005°24'1 0.0
2017-Sep-10 19:40N 36°07' W 005°24'1 0.0
2017-Sep-08 17:32N 36°05' W 005°24'0 2.8
2017-Sep-08 17:30N 36°05' W 005°24'0 0.1
2017-Sep-08 16:20N 36°05' W 005°24'0 0.1
2017-Sep-08 16:01N 36°05' W 005°24'6 0.4
2017-Sep-08 00:40N 36°04' W 005°17'0 0.3
2017-Sep-08 00:30N 36°04' W 005°17'0 0.3
2017-Sep-08 00:00N 36°04' W 005°18'1 1.5
2017-Sep-07 23:30N 36°03' W 005°17'1 2.5
2017-Sep-07 22:58N 36°04' W 005°18'2 1.6
2017-Sep-07 21:47N 36°03' W 005°16'  

Dump ship's entire track history